Hopwood, Pennsylvania
Current Conditions -  °F | °C
As of 6:53 PM on Sunday 21 Dec 2014 (Local Time) from KMGW Reporting Station
Clear Clear  
Wind Chill: 25°   Ceiling: Unl
Heat Index: 31°   Visibility: 10mi
Dew Point: 20°   Wind: 6mph
Humidity: 64%   Direction: 20°NNE
Pressure: 30.21"   Gusts: NA
Location:  39.88°N, 79.7°W
Report Text: KMGW 212353Z 02005KT 10SM CLR M01/M07 A3021 RMK AO2 SLP243 T10061067 10044 21006 58003
Loading
Personal Weather Stations






























Interactive Weather Map New forecast layout! Learn more

10-Day Weather Forecast

Advertisements
Track Severe Weather on mobile